SIRI09 ULLI-UWWW
Flight info
| Callsign | SIRI09 |
|---|---|
| Flight time | N/A |
| Altitude | 30000 |
| Route | SUGI1B SUGIN T873 VUZPU T490 EZMUB T439 USTOK T464 RUBEK RUBE7S |
| Aircraft | B738/M-S/LB1 |
Departure
| Time | 2026-05-01 07:56 |
|---|---|
| Airport | Pulkovo Airport (ULLI) |
Arrival
| Time | N/A |
|---|---|
| Airport | Kurumoch International Airport (UWWW) |
| Time | Latitude | Longitude | Altitude | Speed | Heading |
|---|---|---|---|---|---|
| 2026-05-01 07:40 | 59.79987 | 30.26744 | 86 ft | 0 kts | 106° |
| 2026-05-01 07:46 | 59.79988 | 30.26737 | 86 ft | 3 kts | 106° |
| 2026-05-01 07:46 | 59.79991 | 30.26714 | 86 ft | 3 kts | 106° |
| 2026-05-01 07:46 | 59.79995 | 30.26688 | 86 ft | 0 kts | 105° |
| 2026-05-01 07:48 | 59.79984 | 30.26695 | 86 ft | 3 kts | 185° |
| 2026-05-01 07:48 | 59.79951 | 30.26627 | 86 ft | 8 kts | 226° |
| 2026-05-01 07:48 | 59.79894 | 30.26575 | 86 ft | 9 kts | 197° |
| 2026-05-01 07:49 | 59.79827 | 30.26539 | 86 ft | 10 kts | 194° |
| 2026-05-01 07:49 | 59.79704 | 30.26462 | 86 ft | 8 kts | 197° |
| 2026-05-01 07:49 | 59.79651 | 30.26430 | 86 ft | 7 kts | 195° |
| 2026-05-01 07:50 | 59.79607 | 30.26406 | 86 ft | 3 kts | 194° |
| 2026-05-01 07:50 | 59.79549 | 30.26373 | 86 ft | 8 kts | 197° |
| 2026-05-01 07:50 | 59.79491 | 30.26423 | 86 ft | 14 kts | 109° |
| 2026-05-01 07:51 | 59.79449 | 30.26696 | 87 ft | 26 kts | 105° |
| 2026-05-01 07:51 | 59.79386 | 30.27125 | 89 ft | 38 kts | 105° |
| 2026-05-01 07:51 | 59.79306 | 30.27663 | 90 ft | 42 kts | 106° |
| 2026-05-01 07:52 | 59.79191 | 30.28224 | 89 ft | 0 kts | 159° |
| 2026-05-01 07:53 | 59.79187 | 30.28226 | 89 ft | 2 kts | 161° |
| 2026-05-01 07:53 | 59.79135 | 30.28253 | 90 ft | 13 kts | 166° |
| 2026-05-01 07:53 | 59.79047 | 30.28173 | 90 ft | 19 kts | 268° |
| 2026-05-01 07:54 | 59.79074 | 30.28005 | 90 ft | 0 kts | 288° |
| 2026-05-01 07:55 | 59.79145 | 30.27539 | 90 ft | 72 kts | 286° |
| 2026-05-01 07:55 | 59.79705 | 30.23828 | 307 ft | 181 kts | 287° |
| 2026-05-01 07:56 | 59.80841 | 30.16237 | 1405 ft | 223 kts | 286° |
| 2026-05-01 07:56 | 59.81679 | 30.10394 | 2425 ft | 222 kts | 285° |
| 2026-05-01 07:57 | 59.82044 | 30.07440 | 2890 ft | 231 kts | 291° |
| 2026-05-01 07:57 | 59.82923 | 30.01159 | 4003 ft | 239 kts | 272° |
| 2026-05-01 07:58 | 59.81258 | 29.95586 | 5163 ft | 258 kts | 211° |
| 2026-05-01 07:58 | 59.77756 | 29.93631 | 5689 ft | 265 kts | 196° |
| 2026-05-01 07:59 | 59.74169 | 29.93730 | 6219 ft | 268 kts | 148° |
| 2026-05-01 07:59 | 59.72121 | 29.99424 | 6783 ft | 259 kts | 103° |
| 2026-05-01 08:00 | 59.70049 | 30.13161 | 7740 ft | 261 kts | 101° |
| 2026-05-01 08:01 | 59.69526 | 30.23664 | 8535 ft | 257 kts | 86° |
| 2026-05-01 08:01 | 59.69464 | 30.27191 | 8777 ft | 266 kts | 85° |
| 2026-05-01 08:01 | 59.69400 | 30.31099 | 9115 ft | 297 kts | 86° |
| 2026-05-01 08:02 | 59.68789 | 30.39231 | 9656 ft | 299 kts | 96° |
| 2026-05-01 08:02 | 59.68367 | 30.43205 | 9888 ft | 298 kts | 96° |
| 2026-05-01 08:03 | 59.67514 | 30.51233 | 10206 ft | 301 kts | 96° |
| 2026-05-01 08:03 | 59.67082 | 30.55260 | 10461 ft | 300 kts | 95° |
| 2026-05-01 08:03 | 59.66164 | 30.63817 | 11034 ft | 332 kts | 96° |
| 2026-05-01 08:04 | 59.65302 | 30.72615 | 11535 ft | 328 kts | 94° |
| 2026-05-01 08:04 | 59.64568 | 30.81509 | 12042 ft | 331 kts | 93° |
| 2026-05-01 08:05 | 59.63829 | 30.90432 | 12542 ft | 333 kts | 93° |
| 2026-05-01 08:05 | 59.63456 | 30.94897 | 12790 ft | 334 kts | 93° |
| 2026-05-01 08:05 | 59.63075 | 30.99440 | 13041 ft | 335 kts | 93° |
| 2026-05-01 08:06 | 59.62315 | 31.08445 | 13537 ft | 338 kts | 92° |
| 2026-05-01 08:06 | 59.61541 | 31.17525 | 14028 ft | 339 kts | 92° |
| 2026-05-01 08:07 | 59.60751 | 31.26725 | 14539 ft | 341 kts | 92° |
| 2026-05-01 08:07 | 59.59953 | 31.35931 | 15043 ft | 343 kts | 92° |
| 2026-05-01 08:08 | 59.59548 | 31.40569 | 15295 ft | 343 kts | 92° |
| 2026-05-01 08:08 | 59.58738 | 31.49801 | 15790 ft | 346 kts | 92° |
| 2026-05-01 08:09 | 59.57908 | 31.59180 | 16296 ft | 349 kts | 92° |
| 2026-05-01 08:09 | 59.57488 | 31.63895 | 16546 ft | 349 kts | 92° |
| 2026-05-01 08:09 | 59.57070 | 31.68570 | 16795 ft | 351 kts | 93° |
| 2026-05-01 08:10 | 59.56213 | 31.78081 | 17307 ft | 353 kts | 92° |
| 2026-05-01 08:10 | 59.55350 | 31.87598 | 17815 ft | 355 kts | 92° |
| 2026-05-01 08:11 | 59.54470 | 31.97197 | 18313 ft | 358 kts | 92° |
| 2026-05-01 08:11 | 59.53581 | 32.06822 | 18826 ft | 360 kts | 93° |
| 2026-05-01 08:12 | 59.50897 | 32.15493 | 19374 ft | 395 kts | 128° |
| 2026-05-01 08:12 | 59.48935 | 32.19350 | 19637 ft | 397 kts | 128° |
| 2026-05-01 08:12 | 59.45036 | 32.26978 | 20133 ft | 401 kts | 128° |
| 2026-05-01 08:13 | 59.43045 | 32.30865 | 20174 ft | 402 kts | 128° |
| 2026-05-01 08:13 | 59.41077 | 32.34692 | 20169 ft | 399 kts | 128° |
| 2026-05-01 08:13 | 59.37143 | 32.42330 | 20302 ft | 396 kts | 127° |
| 2026-05-01 08:14 | 59.35167 | 32.46161 | 20847 ft | 404 kts | 127° |
| 2026-05-01 08:14 | 59.33150 | 32.50069 | 21375 ft | 412 kts | 127° |
| 2026-05-01 08:14 | 59.31084 | 32.54054 | 21908 ft | 418 kts | 127° |
| 2026-05-01 08:14 | 59.29006 | 32.58050 | 22429 ft | 424 kts | 127° |
| 2026-05-01 08:15 | 59.26895 | 32.62118 | 22955 ft | 430 kts | 127° |
| 2026-05-01 08:15 | 59.22591 | 32.70367 | 23993 ft | 440 kts | 128° |
| 2026-05-01 08:15 | 59.20404 | 32.74553 | 24528 ft | 445 kts | 127° |
| 2026-05-01 08:16 | 59.18198 | 32.78764 | 25065 ft | 449 kts | 127° |
| 2026-05-01 08:16 | 59.15974 | 32.83002 | 25604 ft | 452 kts | 127° |
| 2026-05-01 08:16 | 59.13744 | 32.87245 | 26140 ft | 456 kts | 127° |
| 2026-05-01 08:16 | 59.11446 | 32.91599 | 26698 ft | 459 kts | 127° |
| 2026-05-01 08:17 | 59.09171 | 32.95912 | 27237 ft | 461 kts | 127° |
| 2026-05-01 08:17 | 59.06874 | 33.00260 | 27784 ft | 463 kts | 127° |
| 2026-05-01 08:17 | 59.04582 | 33.04580 | 28326 ft | 465 kts | 127° |
| 2026-05-01 08:17 | 59.02267 | 33.08939 | 28869 ft | 467 kts | 126° |
| 2026-05-01 08:18 | 58.99910 | 33.13367 | 29423 ft | 468 kts | 126° |
| 2026-05-01 08:18 | 58.95200 | 33.22197 | 30164 ft | 479 kts | 126° |
| 2026-05-01 08:19 | 58.91469 | 33.32527 | 30194 ft | 462 kts | 98° |
| 2026-05-01 08:19 | 58.90680 | 33.38382 | 30315 ft | 453 kts | 93° |
| 2026-05-01 08:19 | 58.89943 | 33.44284 | 30889 ft | 446 kts | 91° |
| 2026-05-01 08:19 | 58.89231 | 33.50115 | 31200 ft | 450 kts | 92° |
| 2026-05-01 08:20 | 58.88501 | 33.56036 | 31153 ft | 462 kts | 92° |
| 2026-05-01 08:20 | 58.87002 | 33.68037 | 31158 ft | 457 kts | 93° |
| 2026-05-01 08:21 | 58.85524 | 33.79835 | 31158 ft | 456 kts | 93° |
| 2026-05-01 08:21 | 58.84024 | 33.91689 | 31155 ft | 458 kts | 92° |
| 2026-05-01 08:22 | 58.82532 | 34.03409 | 31155 ft | 456 kts | 93° |
| 2026-05-01 08:22 | 58.81020 | 34.15196 | 31156 ft | 456 kts | 93° |
| 2026-05-01 08:23 | 58.79476 | 34.27101 | 31158 ft | 458 kts | 93° |
| 2026-05-01 08:23 | 58.77933 | 34.38928 | 31157 ft | 456 kts | 93° |
| 2026-05-01 08:24 | 58.76370 | 34.50816 | 31159 ft | 456 kts | 94° |
| 2026-05-01 08:24 | 58.74801 | 34.62637 | 31158 ft | 455 kts | 94° |
| 2026-05-01 08:25 | 58.73226 | 34.74431 | 31162 ft | 456 kts | 95° |
| 2026-05-01 08:25 | 58.71633 | 34.86247 | 31163 ft | 457 kts | 94° |
| 2026-05-01 08:26 | 58.70039 | 34.98011 | 31162 ft | 456 kts | 95° |
| 2026-05-01 08:26 | 58.68425 | 35.09810 | 31162 ft | 455 kts | 95° |
| 2026-05-01 08:27 | 58.66800 | 35.21591 | 31163 ft | 455 kts | 95° |
| 2026-05-01 08:27 | 58.65179 | 35.33283 | 31167 ft | 457 kts | 95° |
| 2026-05-01 08:28 | 58.63530 | 35.45061 | 31167 ft | 457 kts | 94° |
| 2026-05-01 08:28 | 58.61878 | 35.56783 | 31170 ft | 455 kts | 94° |
| 2026-05-01 08:29 | 58.60225 | 35.68418 | 31173 ft | 455 kts | 95° |
| 2026-05-01 08:29 | 58.58528 | 35.80191 | 31171 ft | 461 kts | 98° |
| 2026-05-01 08:30 | 58.55741 | 35.91516 | 31175 ft | 471 kts | 106° |
| 2026-05-01 08:30 | 58.52822 | 36.02632 | 31179 ft | 470 kts | 107° |
| 2026-05-01 08:31 | 58.49879 | 36.13761 | 31177 ft | 472 kts | 107° |
| 2026-05-01 08:31 | 58.46911 | 36.24919 | 31177 ft | 470 kts | 106° |
| 2026-05-01 08:32 | 58.43916 | 36.36123 | 31173 ft | 470 kts | 106° |
| 2026-05-01 08:32 | 58.40959 | 36.47135 | 31167 ft | 470 kts | 106° |
| 2026-05-01 08:33 | 58.37985 | 36.58165 | 31164 ft | 468 kts | 106° |
| 2026-05-01 08:33 | 58.35007 | 36.69145 | 31179 ft | 472 kts | 107° |
| 2026-05-01 08:34 | 58.32057 | 36.79968 | 31170 ft | 470 kts | 107° |
| 2026-05-01 08:34 | 58.29057 | 36.90923 | 31173 ft | 469 kts | 107° |
| 2026-05-01 08:35 | 58.26051 | 37.01865 | 31168 ft | 471 kts | 107° |
| 2026-05-01 08:35 | 58.23025 | 37.12804 | 31153 ft | 469 kts | 107° |
| 2026-05-01 08:36 | 58.19995 | 37.23705 | 31153 ft | 467 kts | 107° |
| 2026-05-01 08:36 | 58.16975 | 37.34536 | 31151 ft | 468 kts | 107° |
| 2026-05-01 08:37 | 58.13899 | 37.45494 | 31154 ft | 470 kts | 107° |
| 2026-05-01 08:37 | 58.10824 | 37.56417 | 31151 ft | 470 kts | 108° |
| 2026-05-01 08:38 | 58.07752 | 37.67261 | 31154 ft | 469 kts | 108° |
| 2026-05-01 08:38 | 58.04661 | 37.78137 | 31155 ft | 469 kts | 108° |
| 2026-05-01 08:39 | 58.01583 | 37.88905 | 31152 ft | 468 kts | 108° |
| 2026-05-01 08:39 | 57.98485 | 37.99706 | 31152 ft | 472 kts | 109° |
| 2026-05-01 08:40 | 57.93772 | 38.16019 | 31152 ft | 471 kts | 109° |
| 2026-05-01 08:40 | 57.90656 | 38.26749 | 31152 ft | 469 kts | 109° |
| 2026-05-01 08:41 | 57.87517 | 38.37502 | 31128 ft | 470 kts | 109° |
| 2026-05-01 08:41 | 57.84372 | 38.48236 | 31132 ft | 470 kts | 109° |
| 2026-05-01 08:42 | 57.81217 | 38.58945 | 31139 ft | 470 kts | 110° |
| 2026-05-01 08:42 | 57.78018 | 38.69746 | 31138 ft | 472 kts | 111° |
| 2026-05-01 08:43 | 57.75749 | 38.77389 | 31145 ft | 473 kts | 111° |
| 2026-05-01 08:43 | 57.72559 | 38.88079 | 31149 ft | 470 kts | 111° |
| 2026-05-01 08:44 | 57.69353 | 38.98674 | 31133 ft | 477 kts | 115° |
| 2026-05-01 08:44 | 57.67660 | 39.03928 | 31141 ft | 464 kts | 105° |
| 2026-05-01 08:44 | 57.66479 | 39.09525 | 31151 ft | 460 kts | 103° |
| 2026-05-01 08:45 | 57.64247 | 39.20621 | 31097 ft | 454 kts | 98° |
| 2026-05-01 08:45 | 57.63013 | 39.32019 | 31126 ft | 452 kts | 94° |
| 2026-05-01 08:46 | 57.61824 | 39.43565 | 31137 ft | 450 kts | 94° |
| 2026-05-01 08:46 | 57.60655 | 39.54972 | 31136 ft | 449 kts | 94° |
| 2026-05-01 08:47 | 57.59491 | 39.66315 | 31147 ft | 450 kts | 94° |
| 2026-05-01 08:47 | 57.58177 | 39.77745 | 31202 ft | 462 kts | 104° |
| 2026-05-01 08:48 | 57.56449 | 39.82979 | 31237 ft | 485 kts | 126° |
| 2026-05-01 08:48 | 57.53731 | 39.86922 | 31276 ft | 506 kts | 146° |
| 2026-05-01 08:48 | 57.47557 | 39.93278 | 31174 ft | 507 kts | 146° |
| 2026-05-01 08:49 | 57.41396 | 39.99607 | 31151 ft | 506 kts | 146° |
| 2026-05-01 08:49 | 57.35702 | 40.06714 | 31123 ft | 488 kts | 130° |
| 2026-05-01 08:50 | 57.31747 | 40.16447 | 31122 ft | 467 kts | 109° |
| 2026-05-01 08:50 | 57.28789 | 40.27146 | 31178 ft | 474 kts | 115° |
| 2026-05-01 08:51 | 57.25153 | 40.37360 | 31165 ft | 474 kts | 117° |
| 2026-05-01 08:51 | 57.22879 | 40.43518 | 31158 ft | 476 kts | 118° |
| 2026-05-01 08:52 | 57.19218 | 40.53338 | 31143 ft | 473 kts | 118° |
| 2026-05-01 08:52 | 57.15477 | 40.63340 | 31154 ft | 474 kts | 118° |
| 2026-05-01 08:53 | 57.11720 | 40.73326 | 31166 ft | 477 kts | 119° |
| 2026-05-01 08:53 | 57.07940 | 40.83334 | 31161 ft | 475 kts | 119° |
| 2026-05-01 08:54 | 57.04195 | 40.93213 | 31163 ft | 475 kts | 119° |
| 2026-05-01 08:54 | 57.00407 | 41.03160 | 31162 ft | 474 kts | 120° |
| 2026-05-01 08:55 | 56.96632 | 41.13028 | 31162 ft | 475 kts | 120° |
| 2026-05-01 08:55 | 56.92827 | 41.22944 | 31158 ft | 474 kts | 120° |
| 2026-05-01 08:56 | 56.89030 | 41.32791 | 31155 ft | 474 kts | 120° |
| 2026-05-01 08:56 | 56.85214 | 41.42653 | 31153 ft | 476 kts | 120° |
| 2026-05-01 08:57 | 56.81406 | 41.52457 | 31152 ft | 477 kts | 121° |
| 2026-05-01 08:57 | 56.77557 | 41.62317 | 31149 ft | 476 kts | 121° |
| 2026-05-01 08:58 | 56.73706 | 41.72144 | 31150 ft | 476 kts | 122° |
| 2026-05-01 08:58 | 56.69855 | 41.81928 | 31151 ft | 476 kts | 122° |
| 2026-05-01 08:59 | 56.66013 | 41.91660 | 31154 ft | 477 kts | 122° |
| 2026-05-01 08:59 | 56.62149 | 42.01404 | 31153 ft | 478 kts | 123° |
| 2026-05-01 09:00 | 56.58267 | 42.11150 | 31150 ft | 477 kts | 123° |
| 2026-05-01 09:00 | 56.54380 | 42.20874 | 31154 ft | 477 kts | 123° |
| 2026-05-01 09:01 | 56.50504 | 42.30534 | 31158 ft | 477 kts | 123° |
| 2026-05-01 09:01 | 56.46595 | 42.40232 | 31156 ft | 476 kts | 123° |
| 2026-05-01 09:02 | 56.42728 | 42.49789 | 31156 ft | 477 kts | 123° |
| 2026-05-01 09:02 | 56.38808 | 42.59445 | 31152 ft | 477 kts | 124° |
| 2026-05-01 09:03 | 56.34919 | 42.68979 | 31153 ft | 477 kts | 125° |
| 2026-05-01 09:03 | 56.31040 | 42.78454 | 31149 ft | 477 kts | 125° |
| 2026-05-01 09:04 | 56.27133 | 42.87958 | 31151 ft | 477 kts | 125° |
| 2026-05-01 09:04 | 56.23203 | 42.97483 | 31148 ft | 477 kts | 125° |
| 2026-05-01 09:05 | 56.19245 | 43.07042 | 31146 ft | 477 kts | 125° |
| 2026-05-01 09:05 | 56.15277 | 43.16584 | 31146 ft | 477 kts | 125° |
| 2026-05-01 09:06 | 56.11858 | 43.26660 | 31111 ft | 471 kts | 110° |
| 2026-05-01 09:06 | 56.10186 | 43.37804 | 31155 ft | 468 kts | 104° |
| 2026-05-01 09:07 | 56.08311 | 43.49034 | 31146 ft | 470 kts | 105° |
| 2026-05-01 09:07 | 56.06589 | 43.58802 | 31142 ft | 470 kts | 106° |
| 2026-05-01 09:08 | 56.04544 | 43.70256 | 31141 ft | 470 kts | 107° |
| 2026-05-01 09:08 | 56.02537 | 43.81427 | 31138 ft | 471 kts | 107° |
| 2026-05-01 09:09 | 56.00528 | 43.92541 | 31139 ft | 471 kts | 107° |
| 2026-05-01 09:09 | 55.98514 | 44.03617 | 31138 ft | 471 kts | 107° |
| 2026-05-01 09:10 | 55.96487 | 44.14698 | 31134 ft | 471 kts | 107° |
| 2026-05-01 09:10 | 55.94450 | 44.25770 | 31127 ft | 471 kts | 108° |
| 2026-05-01 09:11 | 55.92396 | 44.36865 | 31124 ft | 472 kts | 108° |
| 2026-05-01 09:11 | 55.90331 | 44.47949 | 31129 ft | 472 kts | 108° |
| 2026-05-01 09:12 | 55.88273 | 44.58936 | 31127 ft | 473 kts | 108° |
| 2026-05-01 09:12 | 55.86191 | 44.69983 | 31125 ft | 474 kts | 109° |
| 2026-05-01 09:13 | 55.84085 | 44.81104 | 31121 ft | 474 kts | 109° |
| 2026-05-01 09:13 | 55.81976 | 44.92168 | 31116 ft | 472 kts | 109° |
| 2026-05-01 09:14 | 55.79859 | 45.03203 | 31111 ft | 472 kts | 109° |
| 2026-05-01 09:14 | 55.77745 | 45.14175 | 31117 ft | 474 kts | 109° |
| 2026-05-01 09:15 | 55.75602 | 45.25224 | 31115 ft | 475 kts | 109° |
| 2026-05-01 09:15 | 55.73438 | 45.36321 | 31119 ft | 476 kts | 109° |
| 2026-05-01 09:16 | 55.71272 | 45.47371 | 31118 ft | 477 kts | 110° |
| 2026-05-01 09:17 | 55.68004 | 45.63911 | 31111 ft | 476 kts | 110° |
| 2026-05-01 09:17 | 55.64707 | 45.80451 | 31114 ft | 474 kts | 111° |
| 2026-05-01 09:18 | 55.61409 | 45.96868 | 31112 ft | 474 kts | 109° |
| 2026-05-01 09:19 | 55.58208 | 46.12910 | 31113 ft | 473 kts | 110° |